sensor_id;sensor_type;location;lat;lon;timestamp;P1;durP1;ratioP1;P2;durP2;ratioP2
24521;SDS011;12680;57.804;12.190;2023-12-20T00:02:17;6.65;;;1.55;;
24521;SDS011;12680;57.804;12.190;2023-12-20T00:04:44;12.30;;;1.88;;
24521;SDS011;12680;57.804;12.190;2023-12-20T00:07:11;12.55;;;1.80;;
24521;SDS011;12680;57.804;12.190;2023-12-20T00:09:38;13.30;;;2.38;;
24521;SDS011;12680;57.804;12.190;2023-12-20T00:12:05;14.90;;;2.58;;
24521;SDS011;12680;57.804;12.190;2023-12-20T00:14:32;15.50;;;2.70;;
24521;SDS011;12680;57.804;12.190;2023-12-20T00:16:59;18.77;;;3.00;;
24521;SDS011;12680;57.804;12.190;2023-12-20T00:19:26;18.55;;;3.00;;
24521;SDS011;12680;57.804;12.190;2023-12-20T00:21:53;9.55;;;2.38;;
24521;SDS011;12680;57.804;12.190;2023-12-20T00:24:20;14.35;;;2.08;;
24521;SDS011;12680;57.804;12.190;2023-12-20T00:26:47;20.55;;;3.08;;
24521;SDS011;12680;57.804;12.190;2023-12-20T00:29:14;12.85;;;2.65;;
24521;SDS011;12680;57.804;12.190;2023-12-20T00:31:41;15.73;;;2.22;;
24521;SDS011;12680;57.804;12.190;2023-12-20T00:34:08;12.68;;;2.72;;
24521;SDS011;12680;57.804;12.190;2023-12-20T00:36:35;23.30;;;2.95;;
24521;SDS011;12680;57.804;12.190;2023-12-20T00:39:03;16.52;;;3.08;;
24521;SDS011;12680;57.804;12.190;2023-12-20T00:41:31;16.85;;;2.50;;
24521;SDS011;12680;57.804;12.190;2023-12-20T00:43:58;17.95;;;2.63;;
24521;SDS011;12680;57.804;12.190;2023-12-20T00:46:24;19.88;;;2.83;;
24521;SDS011;12680;57.804;12.190;2023-12-20T00:48:51;19.17;;;2.70;;
24521;SDS011;12680;57.804;12.190;2023-12-20T00:51:19;14.35;;;2.08;;
24521;SDS011;12680;57.804;12.190;2023-12-20T00:53:45;13.63;;;2.22;;
24521;SDS011;12680;57.804;12.190;2023-12-20T00:56:15;6.93;;;2.30;;
24521;SDS011;12680;57.804;12.190;2023-12-20T00:58:43;16.65;;;2.80;;
24521;SDS011;12680;57.804;12.190;2023-12-20T01:01:10;25.27;;;3.13;;
24521;SDS011;12680;57.804;12.190;2023-12-20T01:03:37;13.10;;;2.50;;
24521;SDS011;12680;57.804;12.190;2023-12-20T01:06:04;17.45;;;3.38;;
24521;SDS011;12680;57.804;12.190;2023-12-20T01:08:31;18.48;;;3.38;;
24521;SDS011;12680;57.804;12.190;2023-12-20T01:10:58;9.23;;;2.20;;
24521;SDS011;12680;57.804;12.190;2023-12-20T01:13:25;19.90;;;3.28;;
24521;SDS011;12680;57.804;12.190;2023-12-20T01:15:52;19.55;;;3.53;;
24521;SDS011;12680;57.804;12.190;2023-12-20T01:18:19;15.35;;;2.25;;
24521;SDS011;12680;57.804;12.190;2023-12-20T01:20:46;17.85;;;2.67;;
24521;SDS011;12680;57.804;12.190;2023-12-20T01:23:13;23.30;;;3.53;;
24521;SDS011;12680;57.804;12.190;2023-12-20T01:25:40;16.98;;;3.17;;
24521;SDS011;12680;57.804;12.190;2023-12-20T01:28:07;15.15;;;3.03;;
24521;SDS011;12680;57.804;12.190;2023-12-20T01:30:34;18.27;;;3.22;;
24521;SDS011;12680;57.804;12.190;2023-12-20T01:33:02;20.05;;;2.60;;
24521;SDS011;12680;57.804;12.190;2023-12-20T01:35:29;17.77;;;2.85;;
24521;SDS011;12680;57.804;12.190;2023-12-20T01:37:56;17.30;;;3.42;;
24521;SDS011;12680;57.804;12.190;2023-12-20T01:40:23;12.73;;;2.33;;
24521;SDS011;12680;57.804;12.190;2023-12-20T01:42:58;18.45;;;3.38;;
24521;SDS011;12680;57.804;12.190;2023-12-20T01:45:26;16.73;;;3.03;;
24521;SDS011;12680;57.804;12.190;2023-12-20T01:47:54;11.43;;;2.60;;
24521;SDS011;12680;57.804;12.190;2023-12-20T01:50:23;12.00;;;2.77;;
24521;SDS011;12680;57.804;12.190;2023-12-20T01:52:50;16.73;;;2.80;;
24521;SDS011;12680;57.804;12.190;2023-12-20T01:55:22;24.80;;;3.45;;
24521;SDS011;12680;57.804;12.190;2023-12-20T01:57:49;17.02;;;2.17;;
24521;SDS011;12680;57.804;12.190;2023-12-20T02:00:16;15.32;;;2.13;;
24521;SDS011;12680;57.804;12.190;2023-12-20T02:02:44;8.75;;;1.77;;
24521;SDS011;12680;57.804;12.190;2023-12-20T02:05:12;13.15;;;2.17;;
24521;SDS011;12680;57.804;12.190;2023-12-20T02:07:39;16.65;;;2.17;;
24521;SDS011;12680;57.804;12.190;2023-12-20T02:10:06;10.32;;;2.03;;
24521;SDS011;12680;57.804;12.190;2023-12-20T02:12:34;14.75;;;2.20;;
24521;SDS011;12680;57.804;12.190;2023-12-20T02:15:01;19.13;;;1.85;;
24521;SDS011;12680;57.804;12.190;2023-12-20T02:17:29;12.43;;;2.17;;
24521;SDS011;12680;57.804;12.190;2023-12-20T02:19:57;16.77;;;2.70;;
24521;SDS011;12680;57.804;12.190;2023-12-20T02:22:25;16.45;;;2.05;;
24521;SDS011;12680;57.804;12.190;2023-12-20T02:24:52;9.15;;;2.10;;
24521;SDS011;12680;57.804;12.190;2023-12-20T02:27:18;12.88;;;1.90;;
24521;SDS011;12680;57.804;12.190;2023-12-20T02:29:46;13.43;;;2.65;;
24521;SDS011;12680;57.804;12.190;2023-12-20T02:32:14;14.45;;;2.78;;
24521;SDS011;12680;57.804;12.190;2023-12-20T02:34:43;16.77;;;2.50;;
24521;SDS011;12680;57.804;12.190;2023-12-20T02:37:10;17.98;;;3.05;;
24521;SDS011;12680;57.804;12.190;2023-12-20T02:39:37;14.23;;;4.05;;
24521;SDS011;12680;57.804;12.190;2023-12-20T02:42:04;16.52;;;2.67;;
24521;SDS011;12680;57.804;12.190;2023-12-20T02:44:31;21.17;;;2.33;;
24521;SDS011;12680;57.804;12.190;2023-12-20T02:46:58;14.40;;;2.78;;
24521;SDS011;12680;57.804;12.190;2023-12-20T02:49:25;15.23;;;2.25;;
24521;SDS011;12680;57.804;12.190;2023-12-20T02:51:53;13.40;;;2.38;;
24521;SDS011;12680;57.804;12.190;2023-12-20T02:54:19;20.02;;;3.58;;
24521;SDS011;12680;57.804;12.190;2023-12-20T02:56:46;22.30;;;3.55;;
24521;SDS011;12680;57.804;12.190;2023-12-20T02:59:14;17.25;;;3.17;;
24521;SDS011;12680;57.804;12.190;2023-12-20T03:01:41;20.75;;;3.05;;
24521;SDS011;12680;57.804;12.190;2023-12-20T03:04:10;20.75;;;2.88;;
24521;SDS011;12680;57.804;12.190;2023-12-20T03:06:37;9.32;;;2.17;;
24521;SDS011;12680;57.804;12.190;2023-12-20T03:09:04;19.05;;;2.65;;
24521;SDS011;12680;57.804;12.190;2023-12-20T03:11:31;11.80;;;3.15;;
24521;SDS011;12680;57.804;12.190;2023-12-20T03:13:58;19.02;;;3.33;;
24521;SDS011;12680;57.804;12.190;2023-12-20T03:16:25;13.15;;;1.75;;
24521;SDS011;12680;57.804;12.190;2023-12-20T03:18:52;14.90;;;2.70;;
24521;SDS011;12680;57.804;12.190;2023-12-20T03:21:19;11.63;;;2.38;;
24521;SDS011;12680;57.804;12.190;2023-12-20T03:23:47;17.05;;;2.30;;
24521;SDS011;12680;57.804;12.190;2023-12-20T03:26:14;19.20;;;2.88;;
24521;SDS011;12680;57.804;12.190;2023-12-20T03:28:41;15.02;;;2.05;;
24521;SDS011;12680;57.804;12.190;2023-12-20T03:31:09;14.23;;;2.55;;
24521;SDS011;12680;57.804;12.190;2023-12-20T03:33:36;10.48;;;1.65;;
24521;SDS011;12680;57.804;12.190;2023-12-20T03:36:03;13.68;;;2.22;;
24521;SDS011;12680;57.804;12.190;2023-12-20T03:38:30;13.45;;;2.13;;
24521;SDS011;12680;57.804;12.190;2023-12-20T03:40:57;12.88;;;2.03;;
24521;SDS011;12680;57.804;12.190;2023-12-20T03:43:24;7.78;;;1.58;;
24521;SDS011;12680;57.804;12.190;2023-12-20T03:45:51;5.93;;;1.25;;
24521;SDS011;12680;57.804;12.190;2023-12-20T03:48:18;8.52;;;1.65;;
24521;SDS011;12680;57.804;12.190;2023-12-20T03:50:45;8.77;;;1.80;;
24521;SDS011;12680;57.804;12.190;2023-12-20T03:53:12;10.05;;;1.73;;
24521;SDS011;12680;57.804;12.190;2023-12-20T03:55:39;7.82;;;1.30;;
24521;SDS011;12680;57.804;12.190;2023-12-20T03:58:06;5.03;;;1.48;;
24521;SDS011;12680;57.804;12.190;2023-12-20T04:00:33;2.83;;;0.90;;
24521;SDS011;12680;57.804;12.190;2023-12-20T04:03:00;5.32;;;1.25;;
24521;SDS011;12680;57.804;12.190;2023-12-20T04:05:26;6.90;;;1.27;;
24521;SDS011;12680;57.804;12.190;2023-12-20T04:07:53;9.02;;;1.60;;
24521;SDS011;12680;57.804;12.190;2023-12-20T04:10:21;5.50;;;1.40;;
24521;SDS011;12680;57.804;12.190;2023-12-20T04:12:48;8.15;;;1.02;;
24521;SDS011;12680;57.804;12.190;2023-12-20T04:15:14;8.40;;;1.38;;
24521;SDS011;12680;57.804;12.190;2023-12-20T04:17:41;4.90;;;1.33;;
24521;SDS011;12680;57.804;12.190;2023-12-20T04:20:09;4.82;;;1.80;;
24521;SDS011;12680;57.804;12.190;2023-12-20T04:22:36;5.63;;;1.42;;
24521;SDS011;12680;57.804;12.190;2023-12-20T04:25:03;15.05;;;1.83;;
24521;SDS011;12680;57.804;12.190;2023-12-20T04:27:31;9.30;;;1.52;;
24521;SDS011;12680;57.804;12.190;2023-12-20T04:29:58;6.63;;;1.60;;
24521;SDS011;12680;57.804;12.190;2023-12-20T04:32:25;6.60;;;1.15;;
24521;SDS011;12680;57.804;12.190;2023-12-20T04:34:52;7.97;;;1.88;;
24521;SDS011;12680;57.804;12.190;2023-12-20T04:37:19;7.68;;;1.65;;
24521;SDS011;12680;57.804;12.190;2023-12-20T04:39:46;7.35;;;1.25;;
24521;SDS011;12680;57.804;12.190;2023-12-20T04:42:13;6.93;;;1.02;;
24521;SDS011;12680;57.804;12.190;2023-12-20T04:44:41;4.70;;;1.15;;
24521;SDS011;12680;57.804;12.190;2023-12-20T04:47:10;11.38;;;1.45;;
24521;SDS011;12680;57.804;12.190;2023-12-20T04:49:37;4.22;;;0.88;;
24521;SDS011;12680;57.804;12.190;2023-12-20T04:52:04;6.53;;;1.23;;
24521;SDS011;12680;57.804;12.190;2023-12-20T04:54:32;6.93;;;1.02;;
24521;SDS011;12680;57.804;12.190;2023-12-20T04:56:59;4.00;;;1.08;;
24521;SDS011;12680;57.804;12.190;2023-12-20T04:59:26;5.63;;;1.20;;
24521;SDS011;12680;57.804;12.190;2023-12-20T05:01:53;6.72;;;1.02;;
24521;SDS011;12680;57.804;12.190;2023-12-20T05:04:20;6.95;;;1.40;;
24521;SDS011;12680;57.804;12.190;2023-12-20T05:06:47;9.88;;;1.30;;
24521;SDS011;12680;57.804;12.190;2023-12-20T05:09:16;5.93;;;1.13;;
24521;SDS011;12680;57.804;12.190;2023-12-20T05:11:44;5.22;;;1.45;;
24521;SDS011;12680;57.804;12.190;2023-12-20T05:14:10;3.53;;;1.20;;
24521;SDS011;12680;57.804;12.190;2023-12-20T05:16:38;10.85;;;1.63;;
24521;SDS011;12680;57.804;12.190;2023-12-20T05:19:05;6.90;;;1.65;;
24521;SDS011;12680;57.804;12.190;2023-12-20T05:21:33;9.40;;;1.70;;
24521;SDS011;12680;57.804;12.190;2023-12-20T05:24:00;16.23;;;2.60;;
24521;SDS011;12680;57.804;12.190;2023-12-20T05:26:27;15.75;;;2.00;;
24521;SDS011;12680;57.804;12.190;2023-12-20T05:28:55;15.63;;;1.92;;
24521;SDS011;12680;57.804;12.190;2023-12-20T05:31:22;12.00;;;2.38;;
24521;SDS011;12680;57.804;12.190;2023-12-20T05:33:49;17.63;;;1.98;;
24521;SDS011;12680;57.804;12.190;2023-12-20T05:36:17;13.45;;;2.58;;
24521;SDS011;12680;57.804;12.190;2023-12-20T05:38:44;9.05;;;1.90;;
24521;SDS011;12680;57.804;12.190;2023-12-20T05:41:11;17.10;;;2.28;;
24521;SDS011;12680;57.804;12.190;2023-12-20T05:43:39;13.27;;;2.28;;
24521;SDS011;12680;57.804;12.190;2023-12-20T05:46:06;12.13;;;1.67;;
24521;SDS011;12680;57.804;12.190;2023-12-20T05:48:33;11.90;;;1.95;;
24521;SDS011;12680;57.804;12.190;2023-12-20T05:51:00;8.75;;;1.98;;
24521;SDS011;12680;57.804;12.190;2023-12-20T05:53:27;9.95;;;2.33;;
24521;SDS011;12680;57.804;12.190;2023-12-20T05:55:54;14.25;;;2.08;;
24521;SDS011;12680;57.804;12.190;2023-12-20T05:58:21;8.10;;;1.50;;
24521;SDS011;12680;57.804;12.190;2023-12-20T06:00:48;10.48;;;2.92;;
24521;SDS011;12680;57.804;12.190;2023-12-20T06:03:15;9.50;;;2.05;;
24521;SDS011;12680;57.804;12.190;2023-12-20T06:05:42;17.33;;;2.13;;
24521;SDS011;12680;57.804;12.190;2023-12-20T06:08:09;19.00;;;2.47;;
24521;SDS011;12680;57.804;12.190;2023-12-20T06:10:36;11.25;;;2.28;;
24521;SDS011;12680;57.804;12.190;2023-12-20T06:13:03;10.15;;;1.92;;
24521;SDS011;12680;57.804;12.190;2023-12-20T06:15:31;6.25;;;1.88;;
24521;SDS011;12680;57.804;12.190;2023-12-20T06:17:57;14.43;;;3.30;;
24521;SDS011;12680;57.804;12.190;2023-12-20T06:20:24;16.17;;;2.15;;
24521;SDS011;12680;57.804;12.190;2023-12-20T06:22:51;12.88;;;1.65;;
24521;SDS011;12680;57.804;12.190;2023-12-20T06:25:18;13.75;;;2.17;;
24521;SDS011;12680;57.804;12.190;2023-12-20T06:27:45;13.80;;;2.35;;
24521;SDS011;12680;57.804;12.190;2023-12-20T06:30:12;10.13;;;1.65;;
24521;SDS011;12680;57.804;12.190;2023-12-20T06:32:39;13.68;;;1.80;;
24521;SDS011;12680;57.804;12.190;2023-12-20T06:35:06;13.05;;;2.42;;
24521;SDS011;12680;57.804;12.190;2023-12-20T06:37:33;13.65;;;2.25;;
24521;SDS011;12680;57.804;12.190;2023-12-20T06:40:00;13.90;;;2.22;;
24521;SDS011;12680;57.804;12.190;2023-12-20T06:42:27;8.93;;;1.70;;
24521;SDS011;12680;57.804;12.190;2023-12-20T06:44:56;10.88;;;1.90;;
24521;SDS011;12680;57.804;12.190;2023-12-20T06:47:23;12.13;;;1.60;;
24521;SDS011;12680;57.804;12.190;2023-12-20T06:49:50;9.85;;;1.63;;
24521;SDS011;12680;57.804;12.190;2023-12-20T06:52:17;8.60;;;1.17;;
24521;SDS011;12680;57.804;12.190;2023-12-20T06:54:44;5.80;;;1.23;;
24521;SDS011;12680;57.804;12.190;2023-12-20T06:57:11;11.50;;;1.45;;
24521;SDS011;12680;57.804;12.190;2023-12-20T06:59:38;17.90;;;1.88;;
24521;SDS011;12680;57.804;12.190;2023-12-20T07:02:06;11.43;;;2.17;;
24521;SDS011;12680;57.804;12.190;2023-12-20T07:04:40;12.75;;;2.10;;
24521;SDS011;12680;57.804;12.190;2023-12-20T07:07:07;7.47;;;1.65;;
24521;SDS011;12680;57.804;12.190;2023-12-20T07:09:34;6.47;;;1.45;;
24521;SDS011;12680;57.804;12.190;2023-12-20T07:12:01;13.55;;;1.65;;
24521;SDS011;12680;57.804;12.190;2023-12-20T07:14:28;17.67;;;2.80;;
24521;SDS011;12680;57.804;12.190;2023-12-20T07:16:55;16.35;;;2.05;;
24521;SDS011;12680;57.804;12.190;2023-12-20T07:19:22;11.18;;;1.88;;
24521;SDS011;12680;57.804;12.190;2023-12-20T07:21:49;15.15;;;1.80;;
24521;SDS011;12680;57.804;12.190;2023-12-20T07:24:15;15.68;;;2.33;;
24521;SDS011;12680;57.804;12.190;2023-12-20T07:26:42;15.40;;;2.33;;
24521;SDS011;12680;57.804;12.190;2023-12-20T07:29:09;18.02;;;2.35;;
24521;SDS011;12680;57.804;12.190;2023-12-20T07:31:36;20.40;;;2.58;;
24521;SDS011;12680;57.804;12.190;2023-12-20T07:34:02;10.40;;;2.00;;
24521;SDS011;12680;57.804;12.190;2023-12-20T07:36:29;18.20;;;2.42;;
24521;SDS011;12680;57.804;12.190;2023-12-20T07:38:56;13.10;;;2.00;;
24521;SDS011;12680;57.804;12.190;2023-12-20T07:41:23;16.92;;;2.47;;
24521;SDS011;12680;57.804;12.190;2023-12-20T07:43:50;14.07;;;2.10;;
24521;SDS011;12680;57.804;12.190;2023-12-20T07:46:17;11.30;;;1.77;;
24521;SDS011;12680;57.804;12.190;2023-12-20T07:48:45;8.05;;;2.05;;
24521;SDS011;12680;57.804;12.190;2023-12-20T07:51:12;18.35;;;2.22;;
24521;SDS011;12680;57.804;12.190;2023-12-20T07:53:39;7.97;;;1.63;;
24521;SDS011;12680;57.804;12.190;2023-12-20T07:56:16;12.38;;;2.63;;
24521;SDS011;12680;57.804;12.190;2023-12-20T07:58:43;17.58;;;1.83;;
24521;SDS011;12680;57.804;12.190;2023-12-20T08:01:18;14.02;;;2.40;;
24521;SDS011;12680;57.804;12.190;2023-12-20T08:03:46;11.57;;;2.28;;
24521;SDS011;12680;57.804;12.190;2023-12-20T08:06:15;10.75;;;2.00;;
24521;SDS011;12680;57.804;12.190;2023-12-20T08:08:43;11.27;;;1.67;;
24521;SDS011;12680;57.804;12.190;2023-12-20T08:11:10;14.00;;;2.30;;
24521;SDS011;12680;57.804;12.190;2023-12-20T08:13:37;13.55;;;2.00;;
24521;SDS011;12680;57.804;12.190;2023-12-20T08:16:04;12.75;;;2.38;;
24521;SDS011;12680;57.804;12.190;2023-12-20T08:18:31;13.57;;;2.00;;
24521;SDS011;12680;57.804;12.190;2023-12-20T08:20:59;11.20;;;2.25;;
24521;SDS011;12680;57.804;12.190;2023-12-20T08:23:26;9.65;;;2.25;;
24521;SDS011;12680;57.804;12.190;2023-12-20T08:25:55;22.05;;;2.63;;
24521;SDS011;12680;57.804;12.190;2023-12-20T08:28:22;13.38;;;2.13;;
24521;SDS011;12680;57.804;12.190;2023-12-20T08:30:49;16.67;;;2.30;;
24521;SDS011;12680;57.804;12.190;2023-12-20T08:33:20;21.40;;;2.75;;
24521;SDS011;12680;57.804;12.190;2023-12-20T08:35:47;16.83;;;2.22;;
24521;SDS011;12680;57.804;12.190;2023-12-20T08:38:14;22.15;;;2.75;;
24521;SDS011;12680;57.804;12.190;2023-12-20T08:40:40;17.13;;;2.33;;
24521;SDS011;12680;57.804;12.190;2023-12-20T08:43:08;18.70;;;2.83;;
24521;SDS011;12680;57.804;12.190;2023-12-20T08:45:35;17.67;;;2.65;;
24521;SDS011;12680;57.804;12.190;2023-12-20T08:48:02;19.73;;;2.55;;
24521;SDS011;12680;57.804;12.190;2023-12-20T08:50:33;15.27;;;3.47;;
24521;SDS011;12680;57.804;12.190;2023-12-20T08:53:00;22.35;;;3.08;;
24521;SDS011;12680;57.804;12.190;2023-12-20T08:55:27;22.60;;;3.15;;
24521;SDS011;12680;57.804;12.190;2023-12-20T08:57:55;17.35;;;2.60;;
24521;SDS011;12680;57.804;12.190;2023-12-20T09:00:22;22.27;;;2.95;;
24521;SDS011;12680;57.804;12.190;2023-12-20T09:02:52;20.48;;;2.45;;
24521;SDS011;12680;57.804;12.190;2023-12-20T09:05:18;20.55;;;2.88;;
24521;SDS011;12680;57.804;12.190;2023-12-20T09:07:45;15.88;;;2.83;;
24521;SDS011;12680;57.804;12.190;2023-12-20T09:10:12;17.67;;;2.55;;
24521;SDS011;12680;57.804;12.190;2023-12-20T09:12:41;13.35;;;2.35;;
24521;SDS011;12680;57.804;12.190;2023-12-20T09:15:09;18.90;;;2.58;;
24521;SDS011;12680;57.804;12.190;2023-12-20T09:17:35;25.80;;;2.58;;
24521;SDS011;12680;57.804;12.190;2023-12-20T09:20:02;16.02;;;2.83;;
24521;SDS011;12680;57.804;12.190;2023-12-20T09:22:32;30.80;;;3.65;;
24521;SDS011;12680;57.804;12.190;2023-12-20T09:24:59;12.35;;;2.95;;
24521;SDS011;12680;57.804;12.190;2023-12-20T09:27:28;21.95;;;2.42;;
24521;SDS011;12680;57.804;12.190;2023-12-20T09:29:54;17.48;;;2.20;;
24521;SDS011;12680;57.804;12.190;2023-12-20T09:32:21;26.77;;;3.85;;
24521;SDS011;12680;57.804;12.190;2023-12-20T09:34:48;21.25;;;2.88;;
24521;SDS011;12680;57.804;12.190;2023-12-20T09:37:15;14.77;;;3.33;;
24521;SDS011;12680;57.804;12.190;2023-12-20T09:39:42;16.85;;;3.30;;
24521;SDS011;12680;57.804;12.190;2023-12-20T09:42:09;21.40;;;3.20;;
24521;SDS011;12680;57.804;12.190;2023-12-20T09:44:38;20.20;;;3.72;;
24521;SDS011;12680;57.804;12.190;2023-12-20T09:47:08;20.63;;;4.28;;
24521;SDS011;12680;57.804;12.190;2023-12-20T09:49:35;15.27;;;3.45;;
24521;SDS011;12680;57.804;12.190;2023-12-20T09:52:04;20.10;;;3.60;;
24521;SDS011;12680;57.804;12.190;2023-12-20T09:54:33;24.33;;;3.53;;
24521;SDS011;12680;57.804;12.190;2023-12-20T09:57:00;26.08;;;4.03;;
24521;SDS011;12680;57.804;12.190;2023-12-20T09:59:27;17.67;;;3.03;;
24521;SDS011;12680;57.804;12.190;2023-12-20T10:01:55;20.85;;;3.80;;
24521;SDS011;12680;57.804;12.190;2023-12-20T10:04:24;26.02;;;3.63;;
24521;SDS011;12680;57.804;12.190;2023-12-20T10:06:56;29.90;;;3.85;;
24521;SDS011;12680;57.804;12.190;2023-12-20T10:09:24;17.15;;;3.47;;
24521;SDS011;12680;57.804;12.190;2023-12-20T10:11:53;18.15;;;3.85;;
24521;SDS011;12680;57.804;12.190;2023-12-20T10:14:21;16.75;;;3.42;;
24521;SDS011;12680;57.804;12.190;2023-12-20T10:16:49;23.60;;;3.83;;
24521;SDS011;12680;57.804;12.190;2023-12-20T10:19:17;20.55;;;3.55;;
24521;SDS011;12680;57.804;12.190;2023-12-20T10:21:44;14.30;;;3.50;;
24521;SDS011;12680;57.804;12.190;2023-12-20T10:24:16;25.40;;;3.67;;
24521;SDS011;12680;57.804;12.190;2023-12-20T10:26:44;24.77;;;4.68;;
24521;SDS011;12680;57.804;12.190;2023-12-20T10:29:10;13.30;;;3.35;;
24521;SDS011;12680;57.804;12.190;2023-12-20T10:31:37;18.08;;;3.10;;
24521;SDS011;12680;57.804;12.190;2023-12-20T10:36:36;20.83;;;3.65;;
24521;SDS011;12680;57.804;12.190;2023-12-20T10:39:03;19.88;;;3.35;;
24521;SDS011;12680;57.804;12.190;2023-12-20T10:41:34;24.45;;;3.63;;
24521;SDS011;12680;57.804;12.190;2023-12-20T10:44:07;20.27;;;3.75;;
24521;SDS011;12680;57.804;12.190;2023-12-20T10:46:36;25.92;;;3.83;;
24521;SDS011;12680;57.804;12.190;2023-12-20T10:49:05;21.10;;;4.15;;
24521;SDS011;12680;57.804;12.190;2023-12-20T10:51:33;18.83;;;2.88;;
24521;SDS011;12680;57.804;12.190;2023-12-20T10:54:01;18.27;;;3.47;;
24521;SDS011;12680;57.804;12.190;2023-12-20T10:56:28;22.80;;;3.72;;
24521;SDS011;12680;57.804;12.190;2023-12-20T10:59:03;25.95;;;3.83;;
24521;SDS011;12680;57.804;12.190;2023-12-20T11:01:31;16.27;;;3.60;;
24521;SDS011;12680;57.804;12.190;2023-12-20T11:03:59;31.77;;;4.88;;
24521;SDS011;12680;57.804;12.190;2023-12-20T11:06:36;24.77;;;3.95;;
24521;SDS011;12680;57.804;12.190;2023-12-20T11:09:24;13.30;;;3.40;;
24521;SDS011;12680;57.804;12.190;2023-12-20T11:14:52;30.25;;;4.30;;
24521;SDS011;12680;57.804;12.190;2023-12-20T11:17:18;28.33;;;4.05;;
24521;SDS011;12680;57.804;12.190;2023-12-20T11:22:25;16.30;;;4.03;;
24521;SDS011;12680;57.804;12.190;2023-12-20T11:24:58;21.40;;;4.35;;
24521;SDS011;12680;57.804;12.190;2023-12-20T11:27:39;34.38;;;4.63;;
24521;SDS011;12680;57.804;12.190;2023-12-20T11:30:09;12.98;;;4.18;;
24521;SDS011;12680;57.804;12.190;2023-12-20T11:32:37;19.60;;;4.93;;
24521;SDS011;12680;57.804;12.190;2023-12-20T11:37:38;15.55;;;4.32;;
24521;SDS011;12680;57.804;12.190;2023-12-20T11:40:14;19.90;;;4.15;;
24521;SDS011;12680;57.804;12.190;2023-12-20T11:42:45;20.88;;;4.57;;
24521;SDS011;12680;57.804;12.190;2023-12-20T11:45:16;23.95;;;5.13;;
24521;SDS011;12680;57.804;12.190;2023-12-20T11:47:49;18.05;;;4.97;;
24521;SDS011;12680;57.804;12.190;2023-12-20T11:50:17;22.58;;;4.80;;
24521;SDS011;12680;57.804;12.190;2023-12-20T11:52:45;14.80;;;4.38;;
24521;SDS011;12680;57.804;12.190;2023-12-20T11:55:12;14.00;;;4.10;;
24521;SDS011;12680;57.804;12.190;2023-12-20T11:57:39;11.63;;;3.75;;
24521;SDS011;12680;57.804;12.190;2023-12-20T12:00:06;13.10;;;4.13;;
24521;SDS011;12680;57.804;12.190;2023-12-20T12:02:34;16.33;;;5.18;;
24521;SDS011;12680;57.804;12.190;2023-12-20T12:05:01;11.88;;;4.45;;
24521;SDS011;12680;57.804;12.190;2023-12-20T12:07:28;17.13;;;4.32;;
24521;SDS011;12680;57.804;12.190;2023-12-20T12:09:55;11.05;;;4.38;;
24521;SDS011;12680;57.804;12.190;2023-12-20T12:12:22;14.18;;;4.72;;
24521;SDS011;12680;57.804;12.190;2023-12-20T12:14:49;13.70;;;3.63;;
24521;SDS011;12680;57.804;12.190;2023-12-20T12:17:16;9.02;;;4.00;;
24521;SDS011;12680;57.804;12.190;2023-12-20T12:19:43;11.02;;;3.63;;
24521;SDS011;12680;57.804;12.190;2023-12-20T12:22:11;15.10;;;4.50;;
24521;SDS011;12680;57.804;12.190;2023-12-20T12:24:44;9.60;;;3.72;;
24521;SDS011;12680;57.804;12.190;2023-12-20T12:27:13;8.10;;;3.70;;
24521;SDS011;12680;57.804;12.190;2023-12-20T12:29:40;10.52;;;4.03;;
24521;SDS011;12680;57.804;12.190;2023-12-20T12:32:08;18.15;;;3.85;;
24521;SDS011;12680;57.804;12.190;2023-12-20T12:34:36;12.88;;;4.93;;
24521;SDS011;12680;57.804;12.190;2023-12-20T12:37:03;13.52;;;4.15;;
24521;SDS011;12680;57.804;12.190;2023-12-20T12:39:30;11.35;;;4.30;;
24521;SDS011;12680;57.804;12.190;2023-12-20T12:41:57;11.38;;;4.43;;
24521;SDS011;12680;57.804;12.190;2023-12-20T12:44:24;13.90;;;4.45;;
24521;SDS011;12680;57.804;12.190;2023-12-20T12:46:51;11.25;;;3.88;;
24521;SDS011;12680;57.804;12.190;2023-12-20T12:49:20;11.25;;;3.75;;
24521;SDS011;12680;57.804;12.190;2023-12-20T12:51:50;16.90;;;4.30;;
24521;SDS011;12680;57.804;12.190;2023-12-20T12:54:17;9.60;;;3.50;;
24521;SDS011;12680;57.804;12.190;2023-12-20T12:56:44;19.02;;;3.85;;
24521;SDS011;12680;57.804;12.190;2023-12-20T12:59:13;9.90;;;4.20;;
24521;SDS011;12680;57.804;12.190;2023-12-20T13:01:40;13.88;;;3.88;;
24521;SDS011;12680;57.804;12.190;2023-12-20T13:04:07;12.48;;;3.55;;
24521;SDS011;12680;57.804;12.190;2023-12-20T13:06:37;10.82;;;3.70;;
24521;SDS011;12680;57.804;12.190;2023-12-20T13:09:05;13.32;;;3.90;;
24521;SDS011;12680;57.804;12.190;2023-12-20T13:11:32;11.77;;;3.70;;
24521;SDS011;12680;57.804;12.190;2023-12-20T13:14:01;13.23;;;3.65;;
24521;SDS011;12680;57.804;12.190;2023-12-20T13:16:27;7.10;;;2.88;;
24521;SDS011;12680;57.804;12.190;2023-12-20T13:18:54;13.30;;;3.92;;
24521;SDS011;12680;57.804;12.190;2023-12-20T13:21:22;12.65;;;4.03;;
24521;SDS011;12680;57.804;12.190;2023-12-20T13:23:49;7.85;;;3.45;;
24521;SDS011;12680;57.804;12.190;2023-12-20T13:26:16;12.30;;;3.67;;
24521;SDS011;12680;57.804;12.190;2023-12-20T13:28:43;12.30;;;4.00;;
24521;SDS011;12680;57.804;12.190;2023-12-20T13:31:10;11.73;;;3.30;;
24521;SDS011;12680;57.804;12.190;2023-12-20T13:33:37;13.23;;;3.72;;
24521;SDS011;12680;57.804;12.190;2023-12-20T13:36:06;15.95;;;3.67;;
24521;SDS011;12680;57.804;12.190;2023-12-20T13:38:33;5.75;;;2.88;;
24521;SDS011;12680;57.804;12.190;2023-12-20T13:41:00;11.00;;;3.65;;
24521;SDS011;12680;57.804;12.190;2023-12-20T13:43:27;11.27;;;3.50;;
24521;SDS011;12680;57.804;12.190;2023-12-20T13:45:54;11.07;;;3.60;;
24521;SDS011;12680;57.804;12.190;2023-12-20T13:48:22;6.93;;;3.40;;
24521;SDS011;12680;57.804;12.190;2023-12-20T13:50:49;13.18;;;3.53;;
24521;SDS011;12680;57.804;12.190;2023-12-20T13:53:16;8.07;;;2.88;;
24521;SDS011;12680;57.804;12.190;2023-12-20T13:55:43;10.20;;;3.05;;
24521;SDS011;12680;57.804;12.190;2023-12-20T13:58:09;16.30;;;3.58;;
24521;SDS011;12680;57.804;12.190;2023-12-20T14:00:36;11.35;;;3.60;;
24521;SDS011;12680;57.804;12.190;2023-12-20T14:03:04;16.25;;;3.60;;
24521;SDS011;12680;57.804;12.190;2023-12-20T14:05:31;10.13;;;4.40;;
24521;SDS011;12680;57.804;12.190;2023-12-20T14:07:58;6.15;;;3.53;;
24521;SDS011;12680;57.804;12.190;2023-12-20T14:10:25;12.52;;;3.60;;
24521;SDS011;12680;57.804;12.190;2023-12-20T14:12:55;11.27;;;3.70;;
24521;SDS011;12680;57.804;12.190;2023-12-20T14:15:22;12.30;;;3.67;;
24521;SDS011;12680;57.804;12.190;2023-12-20T14:17:51;12.57;;;3.38;;
24521;SDS011;12680;57.804;12.190;2023-12-20T14:20:19;12.93;;;3.63;;
24521;SDS011;12680;57.804;12.190;2023-12-20T14:22:45;9.95;;;3.92;;
24521;SDS011;12680;57.804;12.190;2023-12-20T14:25:13;14.57;;;3.88;;
24521;SDS011;12680;57.804;12.190;2023-12-20T14:27:41;11.98;;;4.03;;
24521;SDS011;12680;57.804;12.190;2023-12-20T14:30:12;12.23;;;5.70;;
24521;SDS011;12680;57.804;12.190;2023-12-20T14:32:41;13.45;;;5.30;;
24521;SDS011;12680;57.804;12.190;2023-12-20T14:35:08;12.07;;;5.10;;
24521;SDS011;12680;57.804;12.190;2023-12-20T14:37:35;13.30;;;4.22;;